Etobicoke, Canada
Current Conditions -  °F | °C
As of 1:00 PM on Friday 19 Dec 2014 (Local Time) from CYYZ Reporting Station
Broken Clouds Broken Clouds  
Wind Chill: 19°   Ceiling: 12000
Heat Index: 30°   Visibility: 15mi
Dew Point: 19°   Wind: 16mph
Humidity: 64%   Direction: 340°NNW
Pressure: 30.17"   Gusts: NA
Location:  43.64°N, 79.57°W
Report Text: CYYZ 191800Z 34014KT 15SM FEW025 SCT081 BKN120 M01/M07 A3017 RMK CF1AC3AC2 SLP227
Loading
Personal Weather Stations






























Interactive Weather Map New forecast layout! Learn more

10-Day Weather Forecast

Advertisements
Track Severe Weather on mobile